createdAt,value
2022-08-03T00:02:44.087Z,16.49
2022-08-03T00:06:46.614Z,16.39
2022-08-03T00:10:49.027Z,16.53
2022-08-03T00:14:51.551Z,16.41
2022-08-03T00:18:53.886Z,16.37
2022-08-03T00:22:56.704Z,16.33
2022-08-03T00:26:59.166Z,16.38
2022-08-03T00:31:01.420Z,16.15
2022-08-03T00:35:08.346Z,16.20
2022-08-03T00:39:12.955Z,16.15
2022-08-03T00:43:14.934Z,16.06
2022-08-03T00:47:17.258Z,16.10
2022-08-03T00:51:21.915Z,15.97
2022-08-03T00:55:24.820Z,16.09
2022-08-03T00:59:27.531Z,16.05
2022-08-03T01:03:29.995Z,16.05
2022-08-03T01:08:10.528Z,16.02
2022-08-03T01:12:48.188Z,15.87
2022-08-03T01:16:57.285Z,15.78
2022-08-03T01:21:07.846Z,15.70
2022-08-03T01:25:36.908Z,15.78
2022-08-03T01:29:39.083Z,15.65
2022-08-03T01:33:44.205Z,15.62
2022-08-03T01:37:56.302Z,15.61
2022-08-03T01:42:22.037Z,15.61
2022-08-03T01:46:47.732Z,15.64
2022-08-03T01:50:53.308Z,15.59
2022-08-03T01:54:56.642Z,15.68
2022-08-03T01:59:02.367Z,15.58
2022-08-03T02:03:07.064Z,15.35
2022-08-03T02:07:10.804Z,15.34
2022-08-03T02:11:13.792Z,15.40
2022-08-03T02:15:38.252Z,15.32
2022-08-03T02:19:43.415Z,15.39
2022-08-03T02:23:45.515Z,15.30
2022-08-03T02:28:02.221Z,15.20
2022-08-03T02:32:04.814Z,15.25
2022-08-03T02:36:28.574Z,15.34
2022-08-03T02:40:34.085Z,15.29
2022-08-03T02:44:38.487Z,15.25
2022-08-03T02:48:41.942Z,15.22
2022-08-03T02:52:47.819Z,15.30
2022-08-03T02:56:52.252Z,15.19
2022-08-03T03:00:56.000Z,15.10
2022-08-03T03:05:52.989Z,15.23
2022-08-03T03:09:22.773Z,15.33
2022-08-03T03:13:27.212Z,15.39
2022-08-03T03:17:31.453Z,15.41
2022-08-03T03:21:34.117Z,15.34
2022-08-03T03:25:37.617Z,15.43
2022-08-03T03:29:41.226Z,15.46
2022-08-03T03:33:44.277Z,15.67
2022-08-03T03:37:46.886Z,15.96
2022-08-03T03:41:49.579Z,16.05
2022-08-03T03:45:53.733Z,16.00
2022-08-03T03:50:36.015Z,16.09
2022-08-03T03:54:42.777Z,16.20
2022-08-03T03:58:45.178Z,16.31
2022-08-03T04:02:47.835Z,16.36
2022-08-03T04:07:09.122Z,16.50
2022-08-03T04:11:20.398Z,16.67
2022-08-03T04:15:34.148Z,16.78
2022-08-03T04:19:57.743Z,16.89
2022-08-03T04:24:03.885Z,17.14
2022-08-03T04:28:31.262Z,17.22
2022-08-03T04:32:37.436Z,17.49
2022-08-03T04:36:48.679Z,17.59
2022-08-03T04:40:52.861Z,17.81
2022-08-03T04:45:01.092Z,17.82
2022-08-03T04:49:05.751Z,17.86
2022-08-03T04:53:09.109Z,17.97
2022-08-03T04:57:22.340Z,18.04
2022-08-03T05:01:25.924Z,18.28
2022-08-03T05:05:50.291Z,18.38
2022-08-03T05:09:52.997Z,18.47
2022-08-03T05:14:03.974Z,18.58
2022-08-03T05:18:09.537Z,18.64
2022-08-03T05:22:14.605Z,18.70
2022-08-03T05:26:17.223Z,18.82
2022-08-03T05:30:31.239Z,19.00
2022-08-03T05:34:37.891Z,19.12
2022-08-03T05:38:40.180Z,19.18
2022-08-03T05:42:42.244Z,19.11
2022-08-03T05:46:44.540Z,19.51
2022-08-03T05:50:46.566Z,19.67
2022-08-03T05:54:55.492Z,19.71
2022-08-03T05:59:11.360Z,19.97
2022-08-03T06:03:22.225Z,20.05
2022-08-03T06:07:24.660Z,20.15
2022-08-03T06:11:27.011Z,20.18
2022-08-03T06:15:29.397Z,20.18
2022-08-03T06:19:31.865Z,20.23
2022-08-03T06:23:54.356Z,20.43
2022-08-03T06:27:57.185Z,20.79
2022-08-03T06:31:59.254Z,21.12
2022-08-03T06:36:01.744Z,21.36
2022-08-03T06:40:04.193Z,21.31
2022-08-03T06:44:06.475Z,21.44
2022-08-03T06:48:11.910Z,21.23
2022-08-03T06:52:14.299Z,21.16
2022-08-03T06:56:36.537Z,21.14
2022-08-03T07:00:39.160Z,21.08
2022-08-03T07:04:41.159Z,20.97
2022-08-03T07:08:43.536Z,21.01
2022-08-03T07:12:55.597Z,20.96
2022-08-03T07:16:58.576Z,21.04
2022-08-03T07:21:00.587Z,21.09
2022-08-03T07:25:03.306Z,21.22
2022-08-03T07:29:14.829Z,21.28
2022-08-03T07:33:17.815Z,21.31
2022-08-03T07:37:19.931Z,21.57
2022-08-03T07:41:22.389Z,21.63
2022-08-03T07:45:24.685Z,21.90
2022-08-03T07:49:26.988Z,22.05
2022-08-03T07:53:29.085Z,22.11
2022-08-03T07:57:31.346Z,22.32
2022-08-03T08:01:36.724Z,22.35
2022-08-03T08:05:39.022Z,22.40
2022-08-03T08:09:41.051Z,22.58
2022-08-03T08:13:43.271Z,22.28
2022-08-03T08:17:48.584Z,22.91
2022-08-03T08:21:53.162Z,23.12
2022-08-03T08:26:04.250Z,23.48
2022-08-03T08:30:11.465Z,24.16
2022-08-03T08:34:14.976Z,24.18
2022-08-03T08:38:17.207Z,24.56
2022-08-03T08:42:19.384Z,24.74
2022-08-03T08:46:23.092Z,24.90
2022-08-03T08:50:27.691Z,25.13
2022-08-03T08:54:33.365Z,25.00
2022-08-03T08:58:38.902Z,25.47
2022-08-03T09:02:45.655Z,25.52
2022-08-03T09:07:10.574Z,25.63
2022-08-03T09:11:11.946Z,25.87
2022-08-03T09:15:23.030Z,26.04
2022-08-03T09:19:25.352Z,26.17
2022-08-03T09:24:01.588Z,26.30
2022-08-03T09:28:10.827Z,26.41
2022-08-03T09:32:13.599Z,26.20
2022-08-03T09:36:37.405Z,26.28
2022-08-03T09:40:40.578Z,26.14
2022-08-03T09:44:46.719Z,26.10
2022-08-03T09:48:48.804Z,26.52
2022-08-03T09:52:52.841Z,26.27
2022-08-03T09:56:55.173Z,26.70
2022-08-03T10:01:00.276Z,26.76
2022-08-03T10:05:02.965Z,26.92
2022-08-03T10:09:10.778Z,27.46
2022-08-03T10:13:18.090Z,26.92
2022-08-03T10:17:24.717Z,26.47
2022-08-03T10:21:32.550Z,26.51
2022-08-03T10:25:38.551Z,26.07
2022-08-03T10:29:48.494Z,25.79
2022-08-03T10:33:53.331Z,26.00
2022-08-03T10:38:06.954Z,25.95
2022-08-03T10:42:10.780Z,25.87
2022-08-03T10:46:20.727Z,25.68
2022-08-03T10:50:25.163Z,26.40
2022-08-03T10:54:59.671Z,26.90
2022-08-03T10:59:03.795Z,26.93
2022-08-03T11:03:14.658Z,26.99
2022-08-03T11:07:22.398Z,27.31
2022-08-03T11:11:47.503Z,27.22
2022-08-03T11:15:59.710Z,27.54
2022-08-03T11:20:05.428Z,27.76
2022-08-03T11:24:08.102Z,27.93
2022-08-03T11:28:27.201Z,27.95
2022-08-03T11:32:38.492Z,28.28
2022-08-03T11:37:18.116Z,28.41
2022-08-03T11:41:42.731Z,28.10
2022-08-03T11:46:29.679Z,28.45
2022-08-03T11:50:38.426Z,28.86
2022-08-03T11:54:41.004Z,28.72
2022-08-03T11:59:15.008Z,28.98
2022-08-03T12:03:17.220Z,28.62
2022-08-03T12:07:25.002Z,28.63
2022-08-03T12:11:59.545Z,28.91
2022-08-03T12:16:03.331Z,28.77
2022-08-03T12:20:07.696Z,28.57
2022-08-03T12:24:10.336Z,28.41
2022-08-03T12:28:36.295Z,28.74
2022-08-03T12:32:39.887Z,28.67
2022-08-03T12:36:56.997Z,27.76
2022-08-03T12:41:01.610Z,27.29
2022-08-03T12:45:23.700Z,26.90
2022-08-03T12:49:26.617Z,26.90
2022-08-03T12:53:30.221Z,27.53
2022-08-03T12:57:42.362Z,27.41
2022-08-03T13:01:54.894Z,28.10
2022-08-03T13:05:59.018Z,28.23
2022-08-03T13:10:04.930Z,28.43
2022-08-03T13:14:10.068Z,28.57
2022-08-03T13:18:19.524Z,28.80
2022-08-03T13:22:24.414Z,29.06
2022-08-03T13:26:26.451Z,29.08
2022-08-03T13:30:30.141Z,28.79
2022-08-03T13:34:32.745Z,29.06
2022-08-03T13:38:35.089Z,29.13
2022-08-03T13:42:38.988Z,29.23
2022-08-03T13:46:41.537Z,29.03
2022-08-03T13:50:43.637Z,29.32
2022-08-03T13:54:47.099Z,29.19
2022-08-03T13:58:49.248Z,29.53
2022-08-03T14:02:52.017Z,29.44
2022-08-03T14:06:54.051Z,29.46
2022-08-03T14:10:56.290Z,29.40
2022-08-03T14:15:01.217Z,29.14
2022-08-03T14:19:05.086Z,28.80
2022-08-03T14:23:07.328Z,27.96
2022-08-03T14:27:09.764Z,28.01
2022-08-03T14:32:10.071Z,28.42
2022-08-03T14:35:34.545Z,28.63
2022-08-03T14:44:01.111Z,28.90
2022-08-03T14:50:29.095Z,29.10
2022-08-03T14:52:27.491Z,29.04
2022-08-03T14:56:29.569Z,29.18
2022-08-03T15:00:35.926Z,28.95
2022-08-03T15:04:38.017Z,28.97
2022-08-03T15:08:40.320Z,28.90
2022-08-03T15:12:42.384Z,28.55
2022-08-03T15:16:44.662Z,28.33
2022-08-03T15:20:47.323Z,28.31
2022-08-03T15:24:50.662Z,27.94
2022-08-03T15:28:52.738Z,28.14
2022-08-03T15:32:55.045Z,27.94
2022-08-03T15:36:57.123Z,27.45
2022-08-03T15:40:59.574Z,27.22
2022-08-03T15:45:01.811Z,27.34
2022-08-03T15:49:04.170Z,27.60
2022-08-03T15:53:06.239Z,27.64
2022-08-03T15:57:08.467Z,27.72
2022-08-03T16:01:15.282Z,27.58
2022-08-03T16:05:20.210Z,27.60
2022-08-03T16:09:23.369Z,27.72
2022-08-03T16:14:12.964Z,27.49
2022-08-03T16:18:07.635Z,27.31
2022-08-03T16:22:09.899Z,27.11
2022-08-03T16:26:12.686Z,26.94
2022-08-03T16:30:16.909Z,26.68
2022-08-03T16:34:19.094Z,26.42
2022-08-03T16:38:21.520Z,26.25
2022-08-03T16:42:23.644Z,26.03
2022-08-03T16:46:26.056Z,25.70
2022-08-03T16:50:28.371Z,25.36
2022-08-03T16:54:30.610Z,25.18
2022-08-03T16:58:41.254Z,24.97
2022-08-03T17:02:48.182Z,24.81
2022-08-03T17:06:50.535Z,24.44
2022-08-03T17:10:53.079Z,24.34
2022-08-03T17:14:55.257Z,24.18
2022-08-03T17:19:03.959Z,24.14
2022-08-03T17:23:35.778Z,24.06
2022-08-03T17:28:49.398Z,24.01
2022-08-03T17:32:06.529Z,23.92
2022-08-03T17:36:13.717Z,23.83
2022-08-03T17:40:18.918Z,23.75
2022-08-03T17:44:31.178Z,23.70
2022-08-03T17:48:41.239Z,23.64
2022-08-03T17:52:48.477Z,23.55
2022-08-03T17:57:22.498Z,23.44
2022-08-03T18:02:15.372Z,23.35
2022-08-03T18:06:31.127Z,23.30
2022-08-03T18:10:35.892Z,23.19
2022-08-03T18:15:00.692Z,23.13
2022-08-03T18:23:36.416Z,22.81
2022-08-03T18:27:45.482Z,22.66
2022-08-03T18:32:02.794Z,22.67
2022-08-03T18:36:09.508Z,22.47
2022-08-03T18:40:12.630Z,22.35
2022-08-03T18:44:38.108Z,22.17
2022-08-03T18:49:14.364Z,22.04
2022-08-03T18:53:21.582Z,21.95
2022-08-03T18:57:34.824Z,21.82
2022-08-03T19:01:59.160Z,21.76
2022-08-03T19:06:13.251Z,21.69
2022-08-03T19:10:25.716Z,21.55
2022-08-03T19:14:41.645Z,21.44
2022-08-03T19:18:50.298Z,21.42
2022-08-03T19:22:54.616Z,21.25
2022-08-03T19:26:58.925Z,21.09
2022-08-03T19:31:06.551Z,21.02
2022-08-03T19:35:13.267Z,20.90
2022-08-03T19:39:16.140Z,20.77
2022-08-03T19:43:32.917Z,20.66
2022-08-03T19:48:08.023Z,20.54
2022-08-03T19:52:14.500Z,20.47
2022-08-03T19:56:24.048Z,20.47
2022-08-03T20:00:30.642Z,20.41
2022-08-03T20:04:40.603Z,20.32
2022-08-03T20:08:44.176Z,20.25
2022-08-03T20:12:47.826Z,20.19
2022-08-03T20:16:52.274Z,20.06
2022-08-03T20:20:56.128Z,20.08
2022-08-03T20:25:02.891Z,20.06
2022-08-03T20:29:10.040Z,19.93
2022-08-03T20:33:12.605Z,19.87
2022-08-03T20:37:21.167Z,19.91
2022-08-03T20:41:23.751Z,19.83
2022-08-03T20:46:00.735Z,19.74
2022-08-03T20:49:48.111Z,19.61
2022-08-03T20:54:00.360Z,19.59
2022-08-03T20:58:04.858Z,19.48
2022-08-03T21:02:07.262Z,19.43
2022-08-03T21:06:18.040Z,19.30
2022-08-03T21:10:32.647Z,19.17
2022-08-03T21:13:05.735Z,22.96
2022-08-03T21:14:50.346Z,19.25
2022-08-03T21:18:54.524Z,19.26
2022-08-03T21:22:58.506Z,19.27
2022-08-03T21:27:00.884Z,19.26
2022-08-03T21:31:03.925Z,19.28
2022-08-03T21:35:09.339Z,19.28
2022-08-03T21:39:12.034Z,19.23
2022-08-03T21:43:14.140Z,19.09
2022-08-03T21:47:17.723Z,18.96
2022-08-03T21:51:23.956Z,18.89
2022-08-03T21:55:28.695Z,18.87
2022-08-03T21:59:35.165Z,18.84
2022-08-03T22:03:52.940Z,18.77
2022-08-03T22:07:56.924Z,18.68
2022-08-03T22:11:59.156Z,18.65
2022-08-03T22:16:01.432Z,18.54
2022-08-03T22:20:07.362Z,18.39
2022-08-03T22:24:13.574Z,18.24
2022-08-03T22:28:16.608Z,18.22
2022-08-03T22:32:18.936Z,18.22
2022-08-03T22:36:24.069Z,18.11
2022-08-03T22:40:28.158Z,18.10
2022-08-03T22:44:31.831Z,18.13
2022-08-03T22:48:36.613Z,18.08
2022-08-03T22:52:45.297Z,17.99
2022-08-03T22:56:47.604Z,18.04
2022-08-03T23:01:03.768Z,17.98
2022-08-03T23:05:11.046Z,17.94
2022-08-03T23:09:32.677Z,17.90
2022-08-03T23:13:36.127Z,17.91
2022-08-03T23:17:57.591Z,17.81
2022-08-03T23:22:04.178Z,17.83
2022-08-03T23:26:18.288Z,17.86
2022-08-03T23:30:31.562Z,17.85
2022-08-03T23:34:53.511Z,17.80
2022-08-03T23:38:55.781Z,17.77
2022-08-03T23:43:00.429Z,17.80
2022-08-03T23:47:02.572Z,17.72
2022-08-03T23:51:10.525Z,17.72
2022-08-03T23:55:16.952Z,17.71
